sensor_id;sensor_type;location;lat;lon;timestamp;temperature;humidity
8008;DHT22;4049;49.468;11.200;2024-03-17T00:00:14;6.10;99.90
8008;DHT22;4049;49.468;11.200;2024-03-17T00:02:40;6.10;99.90
8008;DHT22;4049;49.468;11.200;2024-03-17T00:05:08;6.10;99.90
8008;DHT22;4049;49.468;11.200;2024-03-17T00:07:35;6.10;99.90
8008;DHT22;4049;49.468;11.200;2024-03-17T00:10:02;6.10;99.90
8008;DHT22;4049;49.468;11.200;2024-03-17T00:12:28;5.90;99.90
8008;DHT22;4049;49.468;11.200;2024-03-17T00:14:55;5.80;99.90
8008;DHT22;4049;49.468;11.200;2024-03-17T00:17:21;5.70;99.90
8008;DHT22;4049;49.468;11.200;2024-03-17T00:19:48;5.70;99.90
8008;DHT22;4049;49.468;11.200;2024-03-17T00:22:14;5.70;99.90
8008;DHT22;4049;49.468;11.200;2024-03-17T00:24:43;5.60;99.90
8008;DHT22;4049;49.468;11.200;2024-03-17T00:27:09;5.60;99.90
8008;DHT22;4049;49.468;11.200;2024-03-17T00:29:38;5.50;99.90
8008;DHT22;4049;49.468;11.200;2024-03-17T00:32:04;5.40;99.90
8008;DHT22;4049;49.468;11.200;2024-03-17T00:34:31;5.30;99.90
8008;DHT22;4049;49.468;11.200;2024-03-17T00:36:57;5.30;99.90
8008;DHT22;4049;49.468;11.200;2024-03-17T00:39:25;5.30;99.90
8008;DHT22;4049;49.468;11.200;2024-03-17T00:41:52;5.20;99.90
8008;DHT22;4049;49.468;11.200;2024-03-17T00:44:19;5.20;99.90
8008;DHT22;4049;49.468;11.200;2024-03-17T00:46:45;5.20;99.90
8008;DHT22;4049;49.468;11.200;2024-03-17T00:49:12;5.20;99.90
8008;DHT22;4049;49.468;11.200;2024-03-17T00:51:38;5.10;99.90
8008;DHT22;4049;49.468;11.200;2024-03-17T00:54:05;5.10;99.90
8008;DHT22;4049;49.468;11.200;2024-03-17T00:56:31;5.00;99.90
8008;DHT22;4049;49.468;11.200;2024-03-17T00:58:59;5.00;99.90
8008;DHT22;4049;49.468;11.200;2024-03-17T01:01:25;4.90;99.90
8008;DHT22;4049;49.468;11.200;2024-03-17T01:03:52;4.90;99.90
8008;DHT22;4049;49.468;11.200;2024-03-17T01:06:18;4.90;99.90
8008;DHT22;4049;49.468;11.200;2024-03-17T01:08:45;4.90;99.90
8008;DHT22;4049;49.468;11.200;2024-03-17T01:11:14;4.90;99.90
8008;DHT22;4049;49.468;11.200;2024-03-17T01:13:43;4.90;99.90
8008;DHT22;4049;49.468;11.200;2024-03-17T01:16:10;5.00;99.90
8008;DHT22;4049;49.468;11.200;2024-03-17T01:18:37;4.90;99.90
8008;DHT22;4049;49.468;11.200;2024-03-17T01:21:03;4.90;99.90
8008;DHT22;4049;49.468;11.200;2024-03-17T01:23:30;4.80;99.90
8008;DHT22;4049;49.468;11.200;2024-03-17T01:25:55;4.80;99.90
8008;DHT22;4049;49.468;11.200;2024-03-17T01:28:22;4.70;99.90
8008;DHT22;4049;49.468;11.200;2024-03-17T01:30:49;4.70;99.90
8008;DHT22;4049;49.468;11.200;2024-03-17T01:33:17;4.70;99.90
8008;DHT22;4049;49.468;11.200;2024-03-17T01:35:44;4.70;99.90
8008;DHT22;4049;49.468;11.200;2024-03-17T01:38:10;4.80;99.90
8008;DHT22;4049;49.468;11.200;2024-03-17T01:40:36;4.70;99.90
8008;DHT22;4049;49.468;11.200;2024-03-17T01:43:02;4.70;99.90
8008;DHT22;4049;49.468;11.200;2024-03-17T01:45:30;4.60;99.90
8008;DHT22;4049;49.468;11.200;2024-03-17T01:47:59;4.70;99.90
8008;DHT22;4049;49.468;11.200;2024-03-17T01:50:31;4.70;99.90
8008;DHT22;4049;49.468;11.200;2024-03-17T01:53:00;4.70;99.90
8008;DHT22;4049;49.468;11.200;2024-03-17T01:55:30;4.70;99.90
8008;DHT22;4049;49.468;11.200;2024-03-17T01:57:56;4.70;99.90
8008;DHT22;4049;49.468;11.200;2024-03-17T02:00:23;4.70;99.90
8008;DHT22;4049;49.468;11.200;2024-03-17T02:02:49;4.70;99.90
8008;DHT22;4049;49.468;11.200;2024-03-17T02:05:17;4.70;99.90
8008;DHT22;4049;49.468;11.200;2024-03-17T02:07:44;4.70;99.90
8008;DHT22;4049;49.468;11.200;2024-03-17T02:10:11;4.70;99.90
8008;DHT22;4049;49.468;11.200;2024-03-17T02:12:37;4.70;99.90
8008;DHT22;4049;49.468;11.200;2024-03-17T02:15:05;4.70;99.90
8008;DHT22;4049;49.468;11.200;2024-03-17T02:17:31;4.70;99.90
8008;DHT22;4049;49.468;11.200;2024-03-17T02:19:58;4.70;99.90
8008;DHT22;4049;49.468;11.200;2024-03-17T02:22:26;4.60;99.90
8008;DHT22;4049;49.468;11.200;2024-03-17T02:24:53;4.60;99.90
8008;DHT22;4049;49.468;11.200;2024-03-17T02:27:19;4.70;99.90
8008;DHT22;4049;49.468;11.200;2024-03-17T02:29:46;4.70;99.90
8008;DHT22;4049;49.468;11.200;2024-03-17T02:32:12;4.70;99.90
8008;DHT22;4049;49.468;11.200;2024-03-17T02:34:39;4.70;99.90
8008;DHT22;4049;49.468;11.200;2024-03-17T02:37:06;4.70;99.90
8008;DHT22;4049;49.468;11.200;2024-03-17T02:39:34;4.60;99.90
8008;DHT22;4049;49.468;11.200;2024-03-17T02:42:01;4.60;99.90
8008;DHT22;4049;49.468;11.200;2024-03-17T02:44:30;4.60;99.90
8008;DHT22;4049;49.468;11.200;2024-03-17T02:46:57;4.60;99.90
8008;DHT22;4049;49.468;11.200;2024-03-17T02:49:24;4.60;99.90
8008;DHT22;4049;49.468;11.200;2024-03-17T02:51:52;4.50;99.90
8008;DHT22;4049;49.468;11.200;2024-03-17T02:54:19;4.50;99.90
8008;DHT22;4049;49.468;11.200;2024-03-17T02:56:47;4.40;99.90
8008;DHT22;4049;49.468;11.200;2024-03-17T02:59:14;4.40;99.90
8008;DHT22;4049;49.468;11.200;2024-03-17T03:01:41;4.30;99.90
8008;DHT22;4049;49.468;11.200;2024-03-17T03:04:08;4.20;99.90
8008;DHT22;4049;49.468;11.200;2024-03-17T03:06:35;4.20;99.90
8008;DHT22;4049;49.468;11.200;2024-03-17T03:09:02;4.20;99.90
8008;DHT22;4049;49.468;11.200;2024-03-17T03:11:31;4.20;99.90
8008;DHT22;4049;49.468;11.200;2024-03-17T03:13:59;4.10;99.90
8008;DHT22;4049;49.468;11.200;2024-03-17T03:16:26;4.00;99.90
8008;DHT22;4049;49.468;11.200;2024-03-17T03:18:52;3.90;99.90
8008;DHT22;4049;49.468;11.200;2024-03-17T03:21:19;3.90;99.90
8008;DHT22;4049;49.468;11.200;2024-03-17T03:23:47;3.90;99.90
8008;DHT22;4049;49.468;11.200;2024-03-17T03:26:14;3.80;99.90
8008;DHT22;4049;49.468;11.200;2024-03-17T03:28:41;3.90;99.90
8008;DHT22;4049;49.468;11.200;2024-03-17T03:31:12;3.80;99.90
8008;DHT22;4049;49.468;11.200;2024-03-17T03:33:39;3.70;99.90
8008;DHT22;4049;49.468;11.200;2024-03-17T03:36:08;3.70;99.90
8008;DHT22;4049;49.468;11.200;2024-03-17T03:38:35;3.70;99.90
8008;DHT22;4049;49.468;11.200;2024-03-17T03:41:07;3.70;99.90
8008;DHT22;4049;49.468;11.200;2024-03-17T03:43:34;3.70;99.90
8008;DHT22;4049;49.468;11.200;2024-03-17T03:46:02;3.70;99.90
8008;DHT22;4049;49.468;11.200;2024-03-17T03:48:30;3.70;99.90
8008;DHT22;4049;49.468;11.200;2024-03-17T03:50:57;3.80;99.90
8008;DHT22;4049;49.468;11.200;2024-03-17T03:53:24;3.80;99.90
8008;DHT22;4049;49.468;11.200;2024-03-17T03:55:51;3.80;99.90
8008;DHT22;4049;49.468;11.200;2024-03-17T03:58:18;3.80;99.90
8008;DHT22;4049;49.468;11.200;2024-03-17T04:00:46;3.90;99.90
8008;DHT22;4049;49.468;11.200;2024-03-17T04:03:13;3.90;99.90
8008;DHT22;4049;49.468;11.200;2024-03-17T04:05:41;3.90;99.90
8008;DHT22;4049;49.468;11.200;2024-03-17T04:08:08;3.90;99.90
8008;DHT22;4049;49.468;11.200;2024-03-17T04:10:35;3.90;99.90
8008;DHT22;4049;49.468;11.200;2024-03-17T04:13:02;3.90;99.90
8008;DHT22;4049;49.468;11.200;2024-03-17T04:15:29;3.90;99.90
8008;DHT22;4049;49.468;11.200;2024-03-17T04:17:56;3.80;99.90
8008;DHT22;4049;49.468;11.200;2024-03-17T04:20:23;3.90;99.90
8008;DHT22;4049;49.468;11.200;2024-03-17T04:22:51;3.80;99.90
8008;DHT22;4049;49.468;11.200;2024-03-17T04:25:18;3.90;99.90
8008;DHT22;4049;49.468;11.200;2024-03-17T04:27:45;3.90;99.90
8008;DHT22;4049;49.468;11.200;2024-03-17T04:30:12;3.90;99.90
8008;DHT22;4049;49.468;11.200;2024-03-17T04:32:39;3.90;99.90
8008;DHT22;4049;49.468;11.200;2024-03-17T04:35:07;4.00;99.90
8008;DHT22;4049;49.468;11.200;2024-03-17T04:37:33;4.00;99.90
8008;DHT22;4049;49.468;11.200;2024-03-17T04:40:07;3.90;99.90
8008;DHT22;4049;49.468;11.200;2024-03-17T04:42:36;4.00;99.90
8008;DHT22;4049;49.468;11.200;2024-03-17T04:45:06;4.00;99.90
8008;DHT22;4049;49.468;11.200;2024-03-17T04:47:33;4.00;99.90
8008;DHT22;4049;49.468;11.200;2024-03-17T04:50:00;4.00;99.90
8008;DHT22;4049;49.468;11.200;2024-03-17T04:52:27;4.00;99.90
8008;DHT22;4049;49.468;11.200;2024-03-17T04:54:53;4.00;99.90
8008;DHT22;4049;49.468;11.200;2024-03-17T04:57:21;4.00;99.90
8008;DHT22;4049;49.468;11.200;2024-03-17T04:59:48;4.00;99.90
8008;DHT22;4049;49.468;11.200;2024-03-17T05:02:15;4.00;99.90
8008;DHT22;4049;49.468;11.200;2024-03-17T05:04:42;4.00;99.90
8008;DHT22;4049;49.468;11.200;2024-03-17T05:07:09;4.00;99.90
8008;DHT22;4049;49.468;11.200;2024-03-17T05:09:35;4.00;99.90
8008;DHT22;4049;49.468;11.200;2024-03-17T05:12:02;4.00;99.90
8008;DHT22;4049;49.468;11.200;2024-03-17T05:14:30;4.00;99.90
8008;DHT22;4049;49.468;11.200;2024-03-17T05:16:57;4.00;99.90
8008;DHT22;4049;49.468;11.200;2024-03-17T05:19:24;4.10;99.90
8008;DHT22;4049;49.468;11.200;2024-03-17T05:21:50;4.10;99.90
8008;DHT22;4049;49.468;11.200;2024-03-17T05:24:17;4.10;99.90
8008;DHT22;4049;49.468;11.200;2024-03-17T05:26:45;4.10;99.90
8008;DHT22;4049;49.468;11.200;2024-03-17T05:29:12;4.10;99.90
8008;DHT22;4049;49.468;11.200;2024-03-17T05:31:40;4.10;99.90
8008;DHT22;4049;49.468;11.200;2024-03-17T05:34:08;4.10;99.90
8008;DHT22;4049;49.468;11.200;2024-03-17T05:36:36;4.20;99.90
8008;DHT22;4049;49.468;11.200;2024-03-17T05:39:03;4.20;99.90
8008;DHT22;4049;49.468;11.200;2024-03-17T05:41:30;4.20;99.90
8008;DHT22;4049;49.468;11.200;2024-03-17T05:43:56;4.20;99.90
8008;DHT22;4049;49.468;11.200;2024-03-17T05:46:24;4.20;99.90
8008;DHT22;4049;49.468;11.200;2024-03-17T05:48:53;4.20;99.90
8008;DHT22;4049;49.468;11.200;2024-03-17T05:51:21;4.20;99.90
8008;DHT22;4049;49.468;11.200;2024-03-17T05:53:48;4.20;99.90
8008;DHT22;4049;49.468;11.200;2024-03-17T05:56:15;4.20;99.90
8008;DHT22;4049;49.468;11.200;2024-03-17T05:58:42;4.20;99.90
8008;DHT22;4049;49.468;11.200;2024-03-17T06:01:12;4.30;99.90
8008;DHT22;4049;49.468;11.200;2024-03-17T06:03:39;4.30;99.90
8008;DHT22;4049;49.468;11.200;2024-03-17T06:06:08;4.30;99.90
8008;DHT22;4049;49.468;11.200;2024-03-17T06:08:36;4.30;99.90
8008;DHT22;4049;49.468;11.200;2024-03-17T06:11:04;4.30;99.90
8008;DHT22;4049;49.468;11.200;2024-03-17T06:13:31;4.30;99.90
8008;DHT22;4049;49.468;11.200;2024-03-17T06:15:58;4.30;99.90
8008;DHT22;4049;49.468;11.200;2024-03-17T06:18:27;4.40;99.90
8008;DHT22;4049;49.468;11.200;2024-03-17T06:20:54;4.40;99.90
8008;DHT22;4049;49.468;11.200;2024-03-17T06:23:25;4.40;99.90
8008;DHT22;4049;49.468;11.200;2024-03-17T06:25:53;4.50;99.90
8008;DHT22;4049;49.468;11.200;2024-03-17T06:28:21;4.50;99.90
8008;DHT22;4049;49.468;11.200;2024-03-17T06:30:55;4.50;99.90
8008;DHT22;4049;49.468;11.200;2024-03-17T06:33:22;4.60;99.90
8008;DHT22;4049;49.468;11.200;2024-03-17T06:35:49;4.60;99.90
8008;DHT22;4049;49.468;11.200;2024-03-17T06:38:16;4.60;99.90
8008;DHT22;4049;49.468;11.200;2024-03-17T06:40:49;4.70;99.90
8008;DHT22;4049;49.468;11.200;2024-03-17T06:43:16;4.70;99.90
8008;DHT22;4049;49.468;11.200;2024-03-17T06:45:44;4.70;99.90
8008;DHT22;4049;49.468;11.200;2024-03-17T06:48:10;4.80;99.90
8008;DHT22;4049;49.468;11.200;2024-03-17T06:50:38;4.90;99.90
8008;DHT22;4049;49.468;11.200;2024-03-17T06:53:07;4.90;99.90
8008;DHT22;4049;49.468;11.200;2024-03-17T06:55:35;4.90;99.90
8008;DHT22;4049;49.468;11.200;2024-03-17T06:58:03;5.00;99.90
8008;DHT22;4049;49.468;11.200;2024-03-17T07:00:30;5.00;99.90
8008;DHT22;4049;49.468;11.200;2024-03-17T07:02:57;5.10;99.90
8008;DHT22;4049;49.468;11.200;2024-03-17T07:05:25;5.10;99.90
8008;DHT22;4049;49.468;11.200;2024-03-17T07:07:52;5.10;99.90
8008;DHT22;4049;49.468;11.200;2024-03-17T07:10:18;5.20;99.90
8008;DHT22;4049;49.468;11.200;2024-03-17T07:12:45;5.30;99.90
8008;DHT22;4049;49.468;11.200;2024-03-17T07:15:14;5.40;99.90
8008;DHT22;4049;49.468;11.200;2024-03-17T07:17:40;5.40;99.90
8008;DHT22;4049;49.468;11.200;2024-03-17T07:20:10;5.50;99.90
8008;DHT22;4049;49.468;11.200;2024-03-17T07:22:38;5.60;99.90
8008;DHT22;4049;49.468;11.200;2024-03-17T07:25:06;5.60;99.90
8008;DHT22;4049;49.468;11.200;2024-03-17T07:27:32;5.70;99.90
8008;DHT22;4049;49.468;11.200;2024-03-17T07:30:03;5.80;99.90
8008;DHT22;4049;49.468;11.200;2024-03-17T07:32:32;5.90;99.90
8008;DHT22;4049;49.468;11.200;2024-03-17T07:34:58;6.00;99.90
8008;DHT22;4049;49.468;11.200;2024-03-17T07:37:25;6.00;99.90
8008;DHT22;4049;49.468;11.200;2024-03-17T07:39:52;6.10;99.90
8008;DHT22;4049;49.468;11.200;2024-03-17T07:42:19;6.20;99.90
8008;DHT22;4049;49.468;11.200;2024-03-17T07:44:46;6.20;99.90
8008;DHT22;4049;49.468;11.200;2024-03-17T07:47:12;6.30;99.90
8008;DHT22;4049;49.468;11.200;2024-03-17T07:49:45;6.40;99.90
8008;DHT22;4049;49.468;11.200;2024-03-17T07:52:12;6.40;99.90
8008;DHT22;4049;49.468;11.200;2024-03-17T07:54:39;6.40;99.90
8008;DHT22;4049;49.468;11.200;2024-03-17T07:57:08;6.50;99.90
8008;DHT22;4049;49.468;11.200;2024-03-17T07:59:35;6.50;99.90
8008;DHT22;4049;49.468;11.200;2024-03-17T08:02:02;6.60;99.90
8008;DHT22;4049;49.468;11.200;2024-03-17T08:04:29;6.70;99.90
8008;DHT22;4049;49.468;11.200;2024-03-17T08:06:58;6.80;99.90
8008;DHT22;4049;49.468;11.200;2024-03-17T08:09:24;6.80;99.90
8008;DHT22;4049;49.468;11.200;2024-03-17T08:11:52;6.90;99.90
8008;DHT22;4049;49.468;11.200;2024-03-17T08:14:19;7.00;99.90
8008;DHT22;4049;49.468;11.200;2024-03-17T08:16:46;7.00;99.90
8008;DHT22;4049;49.468;11.200;2024-03-17T08:19:12;7.10;99.90
8008;DHT22;4049;49.468;11.200;2024-03-17T08:21:39;7.10;99.90
8008;DHT22;4049;49.468;11.200;2024-03-17T08:24:07;7.20;99.90
8008;DHT22;4049;49.468;11.200;2024-03-17T08:26:34;7.20;99.90
8008;DHT22;4049;49.468;11.200;2024-03-17T08:29:01;7.30;99.90
8008;DHT22;4049;49.468;11.200;2024-03-17T08:31:28;7.30;99.90
8008;DHT22;4049;49.468;11.200;2024-03-17T08:33:55;7.40;99.90
8008;DHT22;4049;49.468;11.200;2024-03-17T08:36:22;7.50;99.90
8008;DHT22;4049;49.468;11.200;2024-03-17T08:38:50;7.50;99.90
8008;DHT22;4049;49.468;11.200;2024-03-17T08:41:18;7.50;99.90
8008;DHT22;4049;49.468;11.200;2024-03-17T08:43:45;7.60;99.90
8008;DHT22;4049;49.468;11.200;2024-03-17T08:46:12;7.70;99.90
8008;DHT22;4049;49.468;11.200;2024-03-17T08:50:30;7.70;99.90
8008;DHT22;4049;49.468;11.200;2024-03-17T08:52:59;7.80;99.90
8008;DHT22;4049;49.468;11.200;2024-03-17T08:55:26;7.80;99.90
8008;DHT22;4049;49.468;11.200;2024-03-17T08:57:53;7.90;99.90
8008;DHT22;4049;49.468;11.200;2024-03-17T09:00:20;7.90;99.90
8008;DHT22;4049;49.468;11.200;2024-03-17T09:02:47;8.00;99.90
8008;DHT22;4049;49.468;11.200;2024-03-17T09:05:14;8.00;99.90
8008;DHT22;4049;49.468;11.200;2024-03-17T09:07:42;8.10;99.90
8008;DHT22;4049;49.468;11.200;2024-03-17T09:10:09;8.20;99.90
8008;DHT22;4049;49.468;11.200;2024-03-17T09:12:38;8.30;99.90
8008;DHT22;4049;49.468;11.200;2024-03-17T09:15:06;8.40;99.90
8008;DHT22;4049;49.468;11.200;2024-03-17T09:17:33;8.50;99.90
8008;DHT22;4049;49.468;11.200;2024-03-17T09:20:00;8.60;99.90
8008;DHT22;4049;49.468;11.200;2024-03-17T09:22:27;8.70;99.90
8008;DHT22;4049;49.468;11.200;2024-03-17T09:24:56;8.80;99.90
8008;DHT22;4049;49.468;11.200;2024-03-17T09:27:23;9.00;99.90
8008;DHT22;4049;49.468;11.200;2024-03-17T09:29:51;9.10;99.90
8008;DHT22;4049;49.468;11.200;2024-03-17T09:32:18;9.30;99.90
8008;DHT22;4049;49.468;11.200;2024-03-17T09:34:47;9.40;99.90
8008;DHT22;4049;49.468;11.200;2024-03-17T09:37:14;9.50;99.90
8008;DHT22;4049;49.468;11.200;2024-03-17T09:39:42;9.60;99.90
8008;DHT22;4049;49.468;11.200;2024-03-17T09:42:16;9.70;99.90
8008;DHT22;4049;49.468;11.200;2024-03-17T09:44:46;9.80;99.90
8008;DHT22;4049;49.468;11.200;2024-03-17T09:47:18;9.80;99.90
8008;DHT22;4049;49.468;11.200;2024-03-17T09:49:46;9.90;99.90
8008;DHT22;4049;49.468;11.200;2024-03-17T09:52:19;9.90;99.90
8008;DHT22;4049;49.468;11.200;2024-03-17T09:54:53;10.00;99.90
8008;DHT22;4049;49.468;11.200;2024-03-17T09:57:22;10.00;99.90
8008;DHT22;4049;49.468;11.200;2024-03-17T09:59:51;10.10;99.90
8008;DHT22;4049;49.468;11.200;2024-03-17T10:02:19;10.20;99.90
8008;DHT22;4049;49.468;11.200;2024-03-17T10:04:46;10.20;99.90
8008;DHT22;4049;49.468;11.200;2024-03-17T10:07:13;10.30;99.90
8008;DHT22;4049;49.468;11.200;2024-03-17T10:09:41;10.40;99.90
8008;DHT22;4049;49.468;11.200;2024-03-17T10:15:02;10.40;99.90
8008;DHT22;4049;49.468;11.200;2024-03-17T10:17:31;10.60;99.90
8008;DHT22;4049;49.468;11.200;2024-03-17T10:20:14;10.60;99.90
8008;DHT22;4049;49.468;11.200;2024-03-17T10:23:02;10.60;99.90
8008;DHT22;4049;49.468;11.200;2024-03-17T10:25:31;10.60;99.90
8008;DHT22;4049;49.468;11.200;2024-03-17T10:27:59;10.60;99.90
8008;DHT22;4049;49.468;11.200;2024-03-17T10:30:28;10.60;99.90
8008;DHT22;4049;49.468;11.200;2024-03-17T10:32:58;10.60;99.90
8008;DHT22;4049;49.468;11.200;2024-03-17T10:35:31;10.50;99.90
8008;DHT22;4049;49.468;11.200;2024-03-17T10:37:59;10.50;99.90
8008;DHT22;4049;49.468;11.200;2024-03-17T10:40:28;10.50;99.90
8008;DHT22;4049;49.468;11.200;2024-03-17T10:42:56;10.50;99.90
8008;DHT22;4049;49.468;11.200;2024-03-17T10:45:24;10.50;99.90
8008;DHT22;4049;49.468;11.200;2024-03-17T10:47:53;10.60;99.90
8008;DHT22;4049;49.468;11.200;2024-03-17T10:50:21;10.60;99.90
8008;DHT22;4049;49.468;11.200;2024-03-17T10:52:50;10.70;99.90
8008;DHT22;4049;49.468;11.200;2024-03-17T10:55:22;10.80;99.90
8008;DHT22;4049;49.468;11.200;2024-03-17T10:57:49;10.90;99.90
8008;DHT22;4049;49.468;11.200;2024-03-17T11:00:18;11.00;99.90
8008;DHT22;4049;49.468;11.200;2024-03-17T11:02:48;11.00;99.90
8008;DHT22;4049;49.468;11.200;2024-03-17T11:05:19;11.10;99.90
8008;DHT22;4049;49.468;11.200;2024-03-17T11:07:49;11.20;99.90
8008;DHT22;4049;49.468;11.200;2024-03-17T11:10:19;11.20;99.90
8008;DHT22;4049;49.468;11.200;2024-03-17T11:12:48;11.30;99.90
8008;DHT22;4049;49.468;11.200;2024-03-17T11:18:29;11.40;99.90
8008;DHT22;4049;49.468;11.200;2024-03-17T11:20:59;11.50;99.90
8008;DHT22;4049;49.468;11.200;2024-03-17T11:23:28;11.60;99.90
8008;DHT22;4049;49.468;11.200;2024-03-17T11:25:56;11.80;99.90
8008;DHT22;4049;49.468;11.200;2024-03-17T11:28:45;11.90;99.90
8008;DHT22;4049;49.468;11.200;2024-03-17T11:31:33;12.10;99.90
8008;DHT22;4049;49.468;11.200;2024-03-17T11:34:01;12.20;99.90
8008;DHT22;4049;49.468;11.200;2024-03-17T11:36:37;12.30;99.90
8008;DHT22;4049;49.468;11.200;2024-03-17T11:39:06;12.30;99.90
8008;DHT22;4049;49.468;11.200;2024-03-17T11:41:39;12.30;99.90
8008;DHT22;4049;49.468;11.200;2024-03-17T11:44:25;12.40;99.90
8008;DHT22;4049;49.468;11.200;2024-03-17T11:46:55;12.50;99.90
8008;DHT22;4049;49.468;11.200;2024-03-17T11:49:23;12.60;99.90
8008;DHT22;4049;49.468;11.200;2024-03-17T11:51:53;12.80;99.90
8008;DHT22;4049;49.468;11.200;2024-03-17T11:54:20;12.90;99.90
8008;DHT22;4049;49.468;11.200;2024-03-17T11:56:49;13.00;99.90
8008;DHT22;4049;49.468;11.200;2024-03-17T11:59:16;13.20;99.90
8008;DHT22;4049;49.468;11.200;2024-03-17T12:01:44;13.40;99.90
8008;DHT22;4049;49.468;11.200;2024-03-17T12:04:12;13.50;99.90
8008;DHT22;4049;49.468;11.200;2024-03-17T12:06:39;13.60;99.90
8008;DHT22;4049;49.468;11.200;2024-03-17T12:09:11;13.70;99.90
8008;DHT22;4049;49.468;11.200;2024-03-17T12:11:46;13.80;99.90
8008;DHT22;4049;49.468;11.200;2024-03-17T12:14:16;13.90;99.90
8008;DHT22;4049;49.468;11.200;2024-03-17T12:16:51;14.00;99.90
8008;DHT22;4049;49.468;11.200;2024-03-17T12:19:17;13.90;99.90
8008;DHT22;4049;49.468;11.200;2024-03-17T12:21:46;13.80;99.90
8008;DHT22;4049;49.468;11.200;2024-03-17T12:24:17;13.80;99.90
8008;DHT22;4049;49.468;11.200;2024-03-17T12:26:45;13.80;99.90
8008;DHT22;4049;49.468;11.200;2024-03-17T12:29:25;13.80;99.90
8008;DHT22;4049;49.468;11.200;2024-03-17T12:31:54;13.90;99.90
8008;DHT22;4049;49.468;11.200;2024-03-17T12:34:21;13.90;99.90
8008;DHT22;4049;49.468;11.200;2024-03-17T12:36:49;13.80;99.90
8008;DHT22;4049;49.468;11.200;2024-03-17T12:39:21;13.80;99.90
8008;DHT22;4049;49.468;11.200;2024-03-17T12:42:02;13.90;99.90
8008;DHT22;4049;49.468;11.200;2024-03-17T12:44:29;13.90;99.90
8008;DHT22;4049;49.468;11.200;2024-03-17T12:46:57;14.00;99.90
8008;DHT22;4049;49.468;11.200;2024-03-17T12:49:23;14.00;99.90
8008;DHT22;4049;49.468;11.200;2024-03-17T12:51:52;14.00;99.90
8008;DHT22;4049;49.468;11.200;2024-03-17T12:54:22;14.00;99.90
8008;DHT22;4049;49.468;11.200;2024-03-17T12:56:50;14.00;99.90
8008;DHT22;4049;49.468;11.200;2024-03-17T12:59:39;14.00;99.90
8008;DHT22;4049;49.468;11.200;2024-03-17T13:02:24;14.00;99.90
8008;DHT22;4049;49.468;11.200;2024-03-17T13:05:14;13.90;99.90
8008;DHT22;4049;49.468;11.200;2024-03-17T13:07:42;14.00;99.90
8008;DHT22;4049;49.468;11.200;2024-03-17T13:10:13;14.00;99.90
8008;DHT22;4049;49.468;11.200;2024-03-17T13:12:41;13.90;99.90
8008;DHT22;4049;49.468;11.200;2024-03-17T13:15:11;13.90;99.90
8008;DHT22;4049;49.468;11.200;2024-03-17T13:17:38;13.90;99.90
8008;DHT22;4049;49.468;11.200;2024-03-17T13:20:06;13.90;99.60
8008;DHT22;4049;49.468;11.200;2024-03-17T13:22:37;13.90;99.10
8008;DHT22;4049;49.468;11.200;2024-03-17T13:25:08;13.80;99.90
8008;DHT22;4049;49.468;11.200;2024-03-17T13:27:38;13.80;99.90
8008;DHT22;4049;49.468;11.200;2024-03-17T13:30:06;13.90;99.90
8008;DHT22;4049;49.468;11.200;2024-03-17T13:32:34;13.90;99.90
8008;DHT22;4049;49.468;11.200;2024-03-17T13:35:01;14.00;99.90
8008;DHT22;4049;49.468;11.200;2024-03-17T13:37:29;14.00;99.90
8008;DHT22;4049;49.468;11.200;2024-03-17T13:39:55;14.00;99.90
8008;DHT22;4049;49.468;11.200;2024-03-17T13:42:22;13.90;99.90
8008;DHT22;4049;49.468;11.200;2024-03-17T13:44:50;13.90;99.90
8008;DHT22;4049;49.468;11.200;2024-03-17T13:47:17;13.90;99.90
8008;DHT22;4049;49.468;11.200;2024-03-17T13:49:44;13.80;99.90
8008;DHT22;4049;49.468;11.200;2024-03-17T13:52:12;13.80;99.90
8008;DHT22;4049;49.468;11.200;2024-03-17T13:54:39;13.70;99.90
8008;DHT22;4049;49.468;11.200;2024-03-17T13:57:06;13.70;99.90
8008;DHT22;4049;49.468;11.200;2024-03-17T13:59:33;13.60;99.90
8008;DHT22;4049;49.468;11.200;2024-03-17T14:02:03;13.60;99.90
8008;DHT22;4049;49.468;11.200;2024-03-17T14:04:30;13.60;99.90
8008;DHT22;4049;49.468;11.200;2024-03-17T14:06:57;13.70;99.90
8008;DHT22;4049;49.468;11.200;2024-03-17T14:09:22;13.60;99.90
8008;DHT22;4049;49.468;11.200;2024-03-17T14:11:49;13.70;99.90
8008;DHT22;4049;49.468;11.200;2024-03-17T14:14:16;13.80;99.90
8008;DHT22;4049;49.468;11.200;2024-03-17T14:16:43;13.90;99.90
8008;DHT22;4049;49.468;11.200;2024-03-17T14:19:12;14.00;99.90
8008;DHT22;4049;49.468;11.200;2024-03-17T14:21:38;14.20;99.90
8008;DHT22;4049;49.468;11.200;2024-03-17T14:24:05;14.20;99.90
8008;DHT22;4049;49.468;11.200;2024-03-17T14:26:34;14.20;99.90
8008;DHT22;4049;49.468;11.200;2024-03-17T14:29:01;14.20;99.90
8008;DHT22;4049;49.468;11.200;2024-03-17T14:31:31;14.20;99.90
8008;DHT22;4049;49.468;11.200;2024-03-17T14:33:59;14.10;99.90
8008;DHT22;4049;49.468;11.200;2024-03-17T14:36:28;14.10;99.90
8008;DHT22;4049;49.468;11.200;2024-03-17T14:38:58;14.00;99.90
8008;DHT22;4049;49.468;11.200;2024-03-17T14:41:27;13.80;99.90
8008;DHT22;4049;49.468;11.200;2024-03-17T14:43:54;13.80;99.90
8008;DHT22;4049;49.468;11.200;2024-03-17T14:46:21;13.70;99.90
8008;DHT22;4049;49.468;11.200;2024-03-17T14:48:48;13.60;99.90
8008;DHT22;4049;49.468;11.200;2024-03-17T14:51:16;13.50;99.90
8008;DHT22;4049;49.468;11.200;2024-03-17T14:53:45;13.50;99.90
8008;DHT22;4049;49.468;11.200;2024-03-17T14:56:15;13.40;99.90
8008;DHT22;4049;49.468;11.200;2024-03-17T14:58:42;13.40;99.90
8008;DHT22;4049;49.468;11.200;2024-03-17T15:01:09;13.40;99.90
8008;DHT22;4049;49.468;11.200;2024-03-17T15:03:37;13.30;99.90
8008;DHT22;4049;49.468;11.200;2024-03-17T15:06:11;13.30;99.90
8008;DHT22;4049;49.468;11.200;2024-03-17T15:08:40;13.30;99.90
8008;DHT22;4049;49.468;11.200;2024-03-17T15:11:20;13.20;99.90
8008;DHT22;4049;49.468;11.200;2024-03-17T15:14:07;13.20;99.90
8008;DHT22;4049;49.468;11.200;2024-03-17T15:16:36;13.10;99.90
8008;DHT22;4049;49.468;11.200;2024-03-17T15:19:04;13.00;99.90
8008;DHT22;4049;49.468;11.200;2024-03-17T15:21:32;13.00;99.90
8008;DHT22;4049;49.468;11.200;2024-03-17T15:23:59;12.90;99.90
8008;DHT22;4049;49.468;11.200;2024-03-17T15:26:27;12.90;99.90
8008;DHT22;4049;49.468;11.200;2024-03-17T15:28:54;12.80;99.90
8008;DHT22;4049;49.468;11.200;2024-03-17T15:31:23;12.80;99.90
8008;DHT22;4049;49.468;11.200;2024-03-17T15:33:50;12.70;99.90
8008;DHT22;4049;49.468;11.200;2024-03-17T15:36:18;12.70;99.90
8008;DHT22;4049;49.468;11.200;2024-03-17T15:38:46;12.70;99.90
8008;DHT22;4049;49.468;11.200;2024-03-17T15:41:14;12.70;99.90
8008;DHT22;4049;49.468;11.200;2024-03-17T15:43:42;12.60;99.90
8008;DHT22;4049;49.468;11.200;2024-03-17T15:46:14;12.60;99.90
8008;DHT22;4049;49.468;11.200;2024-03-17T15:48:41;12.50;99.90
8008;DHT22;4049;49.468;11.200;2024-03-17T15:51:08;12.50;99.90
8008;DHT22;4049;49.468;11.200;2024-03-17T15:53:35;12.50;99.90
8008;DHT22;4049;49.468;11.200;2024-03-17T15:56:03;12.50;99.90
8008;DHT22;4049;49.468;11.200;2024-03-17T15:58:30;12.40;99.90
8008;DHT22;4049;49.468;11.200;2024-03-17T16:01:04;12.40;99.90
8008;DHT22;4049;49.468;11.200;2024-03-17T16:03:34;12.40;99.90
8008;DHT22;4049;49.468;11.200;2024-03-17T16:06:03;12.30;99.90
8008;DHT22;4049;49.468;11.200;2024-03-17T16:08:33;12.30;99.90